createdAt,value
2023-05-04T00:00:58.427Z,9.70
2023-05-04T00:03:26.041Z,9.43
2023-05-04T00:05:53.504Z,10.00
2023-05-04T00:08:21.147Z,9.47
2023-05-04T00:10:48.713Z,9.60
2023-05-04T00:13:16.188Z,10.00
2023-05-04T00:15:43.689Z,10.67
2023-05-04T00:18:10.955Z,10.53
2023-05-04T00:20:38.363Z,10.77
2023-05-04T00:23:05.697Z,10.43
2023-05-04T00:25:33.073Z,9.93
2023-05-04T00:28:00.410Z,11.40
2023-05-04T00:30:27.640Z,12.27
2023-05-04T00:32:54.978Z,14.17
2023-05-04T00:35:22.254Z,12.00
2023-05-04T00:37:50.039Z,12.70
2023-05-04T00:40:17.486Z,12.83
2023-05-04T00:42:44.821Z,12.63
2023-05-04T00:45:12.446Z,12.60
2023-05-04T00:47:39.887Z,14.27
2023-05-04T00:50:07.794Z,13.20
2023-05-04T00:52:35.527Z,13.40
2023-05-04T00:55:03.034Z,12.77
2023-05-04T00:57:30.463Z,13.30
2023-05-04T00:59:57.872Z,14.03
2023-05-04T01:02:25.201Z,13.43
2023-05-04T01:04:52.691Z,14.30
2023-05-04T01:07:29.195Z,13.40
2023-05-04T01:10:06.051Z,13.43
2023-05-04T01:12:33.561Z,14.07
2023-05-04T01:15:01.582Z,13.53
2023-05-04T01:17:28.950Z,14.67
2023-05-04T01:19:56.425Z,13.83
2023-05-04T01:22:24.015Z,13.87
2023-05-04T01:24:51.478Z,15.17
2023-05-04T01:27:30.048Z,15.13
2023-05-04T01:30:00.078Z,15.53
2023-05-04T01:32:29.729Z,15.90
2023-05-04T01:34:57.832Z,15.73
2023-05-04T01:37:25.334Z,14.80
2023-05-04T01:39:52.709Z,16.20
2023-05-04T01:42:20.271Z,16.90
2023-05-04T01:44:47.607Z,16.43
2023-05-04T01:47:14.992Z,16.47
2023-05-04T01:49:42.310Z,16.73
2023-05-04T01:52:09.706Z,16.20
2023-05-04T01:54:37.188Z,16.37
2023-05-04T01:57:04.515Z,16.53
2023-05-04T01:59:31.916Z,15.73
2023-05-04T02:01:59.390Z,16.87
2023-05-04T02:04:26.762Z,17.13
2023-05-04T02:06:54.236Z,18.23
2023-05-04T02:09:21.842Z,17.23
2023-05-04T02:11:49.660Z,17.83
2023-05-04T02:14:17.011Z,16.97
2023-05-04T02:16:44.409Z,18.13
2023-05-04T02:19:11.719Z,18.13
2023-05-04T02:21:39.036Z,18.77
2023-05-04T02:24:07.201Z,18.90
2023-05-04T02:26:34.942Z,19.13
2023-05-04T02:29:06.094Z,19.60
2023-05-04T02:31:34.397Z,19.70
2023-05-04T02:34:02.709Z,18.63
2023-05-04T02:36:30.165Z,20.20
2023-05-04T02:39:00.503Z,19.53
2023-05-04T02:41:29.216Z,19.23
2023-05-04T02:43:56.617Z,20.63
2023-05-04T02:46:25.542Z,20.27
2023-05-04T02:48:53.323Z,19.07
2023-05-04T02:51:21.080Z,19.93
2023-05-04T02:53:48.502Z,21.30
2023-05-04T02:56:16.169Z,20.27
2023-05-04T02:58:43.593Z,20.23
2023-05-04T03:01:10.908Z,20.83
2023-05-04T03:03:38.350Z,19.73
2023-05-04T03:06:06.158Z,20.87
2023-05-04T03:08:33.624Z,20.97
2023-05-04T03:11:01.064Z,20.30
2023-05-04T03:13:28.566Z,20.60
2023-05-04T03:15:55.887Z,21.17
2023-05-04T03:18:23.376Z,20.97
2023-05-04T03:20:50.949Z,20.53
2023-05-04T03:23:19.140Z,20.57
2023-05-04T03:25:46.564Z,20.67
2023-05-04T03:28:13.890Z,20.43
2023-05-04T03:30:41.236Z,20.03
2023-05-04T03:33:09.018Z,20.03
2023-05-04T03:35:36.458Z,20.97
2023-05-04T03:38:03.773Z,20.07
2023-05-04T03:40:31.383Z,20.27
2023-05-04T03:42:58.701Z,21.60
2023-05-04T03:45:28.748Z,20.40
2023-05-04T03:47:56.472Z,20.90
2023-05-04T03:50:23.953Z,20.67
2023-05-04T03:52:51.962Z,20.40
2023-05-04T03:55:19.407Z,20.90
2023-05-04T03:57:46.820Z,20.33
2023-05-04T04:00:14.695Z,20.07
2023-05-04T04:02:42.240Z,19.77
2023-05-04T04:05:09.882Z,19.07
2023-05-04T04:07:40.623Z,19.70
2023-05-04T04:10:10.496Z,21.13
2023-05-04T04:12:38.287Z,21.23
2023-05-04T04:15:05.833Z,19.67
2023-05-04T04:17:33.204Z,19.57
2023-05-04T04:20:00.571Z,20.13
2023-05-04T04:22:27.859Z,18.73
2023-05-04T04:24:55.133Z,19.67
2023-05-04T04:27:22.516Z,19.77
2023-05-04T04:29:49.802Z,19.27
2023-05-04T04:32:17.194Z,18.67
2023-05-04T04:34:44.968Z,20.03
2023-05-04T04:37:12.657Z,19.53
2023-05-04T04:39:40.221Z,19.77
2023-05-04T04:42:07.692Z,19.63
2023-05-04T04:44:35.748Z,18.73
2023-05-04T04:47:03.590Z,18.23
2023-05-04T04:49:30.929Z,18.87
2023-05-04T04:51:58.958Z,19.07
2023-05-04T04:54:27.322Z,19.47
2023-05-04T04:56:55.342Z,18.53
2023-05-04T04:59:24.921Z,18.50
2023-05-04T05:01:52.959Z,18.73
2023-05-04T05:04:22.155Z,19.57
2023-05-04T05:06:49.826Z,17.33
2023-05-04T05:09:17.186Z,17.67
2023-05-04T05:11:44.581Z,17.67
2023-05-04T05:14:12.324Z,17.70
2023-05-04T05:16:39.841Z,17.87
2023-05-04T05:19:07.314Z,18.00
2023-05-04T05:21:34.703Z,18.10
2023-05-04T05:24:03.044Z,16.80
2023-05-04T05:26:30.871Z,18.17
2023-05-04T05:28:58.185Z,16.77
2023-05-04T05:31:25.933Z,14.93
2023-05-04T05:33:53.468Z,13.27
2023-05-04T05:36:21.533Z,12.15
2023-05-04T05:38:50.375Z,10.52
2023-05-04T05:41:17.821Z,10.18
2023-05-04T05:43:45.317Z,10.82
2023-05-04T05:46:13.035Z,10.00
2023-05-04T05:48:40.513Z,9.45
2023-05-04T05:51:07.942Z,9.10
2023-05-04T05:53:35.515Z,9.55
2023-05-04T05:56:03.280Z,8.95
2023-05-04T05:58:30.761Z,10.00
2023-05-04T06:00:58.067Z,9.70
2023-05-04T06:03:25.826Z,10.25
2023-05-04T06:05:53.454Z,9.95
2023-05-04T06:08:20.777Z,11.05
2023-05-04T06:10:48.805Z,9.00
2023-05-04T06:13:16.448Z,11.13
2023-05-04T06:15:51.134Z,11.35
2023-05-04T06:18:18.512Z,10.77
2023-05-04T06:20:45.912Z,11.52
2023-05-04T06:23:14.772Z,10.50
2023-05-04T06:25:42.421Z,11.27
2023-05-04T06:28:10.064Z,11.13
2023-05-04T06:30:37.529Z,11.77
2023-05-04T06:33:04.970Z,10.77
2023-05-04T06:35:33.726Z,11.18
2023-05-04T06:38:00.995Z,11.48
2023-05-04T06:40:28.458Z,11.77
2023-05-04T06:42:56.039Z,10.73
2023-05-04T06:45:23.421Z,10.80
2023-05-04T06:47:50.767Z,10.38
2023-05-04T06:50:18.273Z,11.48
2023-05-04T06:52:46.697Z,12.05
2023-05-04T06:55:14.034Z,12.23
2023-05-04T06:57:41.553Z,11.88
2023-05-04T07:00:09.344Z,11.40
2023-05-04T07:02:36.711Z,11.73
2023-05-04T07:05:04.233Z,12.00
2023-05-04T07:07:31.748Z,11.23
2023-05-04T07:09:59.129Z,11.68
2023-05-04T07:12:26.563Z,10.43
2023-05-04T07:14:53.886Z,11.85
2023-05-04T07:17:22.097Z,10.57
2023-05-04T07:19:52.285Z,10.93
2023-05-04T07:22:21.013Z,11.02
2023-05-04T07:24:48.295Z,10.85
2023-05-04T07:27:15.818Z,11.27
2023-05-04T07:29:43.108Z,10.77
2023-05-04T07:32:10.768Z,9.65
2023-05-04T07:34:45.692Z,9.57
2023-05-04T07:37:14.328Z,8.88
2023-05-04T07:39:42.038Z,9.13
2023-05-04T07:42:09.772Z,9.65
2023-05-04T07:44:37.460Z,8.57
2023-05-04T07:47:04.761Z,8.55
2023-05-04T07:49:32.266Z,8.10
2023-05-04T07:52:00.756Z,7.63
2023-05-04T07:54:28.600Z,7.90
2023-05-04T07:56:56.461Z,7.38
2023-05-04T07:59:23.719Z,7.72
2023-05-04T08:01:51.065Z,7.65
2023-05-04T08:04:18.452Z,7.07
2023-05-04T08:06:46.638Z,7.18
2023-05-04T08:09:13.991Z,7.60
2023-05-04T08:11:41.604Z,7.05
2023-05-04T08:14:09.405Z,7.10
2023-05-04T08:16:37.229Z,6.65
2023-05-04T08:19:05.150Z,6.50
2023-05-04T08:21:32.501Z,6.35
2023-05-04T08:23:59.904Z,6.07
2023-05-04T08:26:28.960Z,6.50
2023-05-04T08:29:05.904Z,6.00
2023-05-04T08:31:33.408Z,6.30
2023-05-04T08:34:01.777Z,7.00
2023-05-04T08:36:29.597Z,5.38
2023-05-04T08:38:58.303Z,6.20
2023-05-04T08:41:25.872Z,5.47
2023-05-04T08:43:53.210Z,5.05
2023-05-04T08:46:20.838Z,4.95
2023-05-04T08:48:48.184Z,5.40
2023-05-04T08:51:15.689Z,5.72
2023-05-04T08:53:46.337Z,6.18
2023-05-04T08:56:14.989Z,5.97
2023-05-04T08:58:52.623Z,5.35
2023-05-04T09:01:20.791Z,5.70
2023-05-04T09:03:48.996Z,5.65
2023-05-04T09:06:17.523Z,5.80
2023-05-04T09:08:45.841Z,5.55
2023-05-04T09:11:14.053Z,5.65
2023-05-04T09:13:43.028Z,4.75
2023-05-04T09:16:12.761Z,4.50
2023-05-04T09:18:42.378Z,4.68
2023-05-04T09:21:19.482Z,4.03
2023-05-04T09:23:54.546Z,4.43
2023-05-04T09:26:38.558Z,4.63
2023-05-04T09:29:13.747Z,5.00
2023-05-04T09:31:44.268Z,3.92
2023-05-04T09:34:11.690Z,5.53
2023-05-04T09:36:39.132Z,5.93
2023-05-04T09:39:13.475Z,5.00
2023-05-04T09:41:41.965Z,4.70
2023-05-04T09:44:19.042Z,4.18
2023-05-04T09:46:55.954Z,4.05
2023-05-04T09:49:37.166Z,4.28
2023-05-04T09:52:05.709Z,4.07
2023-05-04T09:54:35.055Z,4.75
2023-05-04T09:57:11.852Z,4.20
2023-05-04T09:59:40.163Z,4.90
2023-05-04T10:02:18.765Z,5.35
2023-05-04T10:04:51.012Z,6.35
2023-05-04T10:07:21.013Z,6.38
2023-05-04T10:09:49.805Z,6.40
2023-05-04T10:12:17.137Z,5.22
2023-05-04T10:14:46.999Z,5.43
2023-05-04T10:17:22.319Z,6.60
2023-05-04T10:20:08.239Z,7.13
2023-05-04T10:22:50.797Z,7.65
2023-05-04T10:25:36.470Z,5.95
2023-05-04T10:28:17.126Z,5.95
2023-05-04T10:30:45.487Z,5.47
2023-05-04T10:33:13.434Z,6.78
2023-05-04T10:36:01.183Z,5.68
2023-05-04T10:38:35.684Z,5.72
2023-05-04T10:41:13.798Z,6.57
2023-05-04T10:43:42.703Z,5.28
2023-05-04T10:46:20.081Z,4.13
2023-05-04T10:48:47.468Z,5.60
2023-05-04T10:51:35.670Z,6.55
2023-05-04T10:54:19.236Z,5.80
2023-05-04T10:56:47.754Z,5.07
2023-05-04T10:59:16.242Z,6.97
2023-05-04T11:01:47.434Z,6.80
2023-05-04T11:04:24.190Z,6.30
2023-05-04T11:07:05.311Z,7.38
2023-05-04T11:09:44.432Z,8.05
2023-05-04T11:12:15.606Z,8.65
2023-05-04T11:14:43.408Z,8.40
2023-05-04T11:17:20.198Z,7.45
2023-05-04T11:19:54.830Z,7.70
2023-05-04T11:22:22.385Z,8.07
2023-05-04T11:24:49.727Z,8.48
2023-05-04T11:27:25.727Z,7.40
2023-05-04T11:29:56.841Z,5.87
2023-05-04T11:32:34.039Z,8.90
2023-05-04T11:35:01.728Z,8.30
2023-05-04T11:37:30.595Z,6.55
2023-05-04T11:39:58.816Z,6.28
2023-05-04T11:42:27.501Z,6.28
2023-05-04T11:44:56.010Z,6.30
2023-05-04T11:47:23.443Z,6.43
2023-05-04T11:49:51.241Z,6.03
2023-05-04T11:52:25.838Z,6.40
2023-05-04T11:54:59.988Z,5.95
2023-05-04T11:57:27.295Z,6.25
2023-05-04T11:59:54.641Z,7.10
2023-05-04T12:02:22.167Z,7.15
2023-05-04T12:04:49.549Z,6.72
2023-05-04T12:07:17.036Z,6.18
2023-05-04T12:09:45.917Z,7.00
2023-05-04T12:12:13.443Z,6.57
2023-05-04T12:14:51.998Z,6.40
2023-05-04T12:17:20.644Z,6.85
2023-05-04T12:19:48.713Z,6.47
2023-05-04T12:22:16.004Z,6.47
2023-05-04T12:24:43.683Z,6.22
2023-05-04T12:27:14.900Z,6.38
2023-05-04T12:29:42.365Z,5.13
2023-05-04T12:32:09.934Z,5.40
2023-05-04T12:34:38.714Z,6.03
2023-05-04T12:37:06.300Z,5.97
2023-05-04T12:39:34.304Z,5.28
2023-05-04T12:42:01.824Z,5.78
2023-05-04T12:44:29.212Z,5.50
2023-05-04T12:46:56.501Z,5.47
2023-05-04T12:49:24.857Z,4.93
2023-05-04T12:51:53.312Z,4.80
2023-05-04T12:54:21.671Z,5.45
2023-05-04T12:56:49.279Z,5.75
2023-05-04T12:59:16.672Z,5.32
2023-05-04T13:01:44.906Z,4.10
2023-05-04T13:04:12.876Z,5.10
2023-05-04T13:06:40.306Z,4.90
2023-05-04T13:09:07.653Z,5.13
2023-05-04T13:11:35.598Z,4.00
2023-05-04T13:14:03.187Z,4.60
2023-05-04T13:16:31.784Z,4.80
2023-05-04T13:19:00.212Z,5.70
2023-05-04T13:21:27.841Z,5.50
2023-05-04T13:23:55.148Z,5.40
2023-05-04T13:26:22.872Z,4.72
2023-05-04T13:28:51.725Z,5.07
2023-05-04T13:31:19.343Z,5.75
2023-05-04T13:33:47.342Z,4.72
2023-05-04T13:36:14.965Z,4.93
2023-05-04T13:38:42.406Z,4.50
2023-05-04T13:41:09.680Z,4.50
2023-05-04T13:43:37.545Z,3.97
2023-05-04T13:46:04.944Z,3.88
2023-05-04T13:48:35.227Z,4.20
2023-05-04T13:51:04.143Z,4.03
2023-05-04T13:53:31.673Z,3.65
2023-05-04T13:55:59.131Z,3.50
2023-05-04T13:58:26.437Z,3.40
2023-05-04T14:00:56.327Z,3.90
2023-05-04T14:03:23.970Z,4.00
2023-05-04T14:05:52.876Z,4.15
2023-05-04T14:08:20.256Z,3.58
2023-05-04T14:10:47.750Z,3.42
2023-05-04T14:13:15.407Z,3.47
2023-05-04T14:15:43.281Z,3.78
2023-05-04T14:18:10.903Z,2.97
2023-05-04T14:20:38.313Z,3.13
2023-05-04T14:23:05.641Z,3.10
2023-05-04T14:25:32.939Z,3.42
2023-05-04T14:28:00.345Z,3.35
2023-05-04T14:30:28.162Z,3.92
2023-05-04T14:32:56.905Z,3.97
2023-05-04T14:35:25.348Z,3.92
2023-05-04T14:37:53.622Z,3.50
2023-05-04T14:40:22.195Z,3.50
2023-05-04T14:42:50.734Z,3.70
2023-05-04T14:45:19.097Z,3.58
2023-05-04T14:47:47.580Z,3.85
2023-05-04T14:50:16.327Z,3.13
2023-05-04T14:52:44.620Z,3.50
2023-05-04T14:55:13.108Z,3.28
2023-05-04T14:57:41.630Z,3.10
2023-05-04T15:00:10.167Z,3.40
2023-05-04T15:02:41.048Z,3.17
2023-05-04T15:05:12.189Z,3.20
2023-05-04T15:07:40.495Z,4.03
2023-05-04T15:10:09.549Z,3.70
2023-05-04T15:12:40.315Z,3.50
2023-05-04T15:15:08.770Z,3.50
2023-05-04T15:17:37.377Z,3.55
2023-05-04T15:20:05.891Z,3.20
2023-05-04T15:22:33.937Z,3.47
2023-05-04T15:25:05.613Z,3.03
2023-05-04T15:27:35.873Z,3.38
2023-05-04T15:30:04.377Z,3.20
2023-05-04T15:32:33.683Z,3.30
2023-05-04T15:35:05.862Z,2.90
2023-05-04T15:37:36.147Z,3.80
2023-05-04T15:40:04.658Z,3.35
2023-05-04T15:42:32.413Z,3.40
2023-05-04T15:44:59.939Z,3.13
2023-05-04T15:47:27.526Z,4.15
2023-05-04T15:50:15.819Z,3.70
2023-05-04T15:52:50.501Z,3.28
2023-05-04T15:55:25.363Z,2.92
2023-05-04T16:01:09.344Z,2.70
2023-05-04T16:03:43.409Z,3.35
2023-05-04T16:06:16.308Z,3.33
2023-05-04T16:08:48.661Z,3.28
2023-05-04T16:17:35.197Z,3.30
2023-05-04T16:20:03.310Z,4.55
2023-05-04T16:22:30.909Z,3.72
2023-05-04T16:24:58.557Z,3.65
2023-05-04T16:27:29.264Z,3.53
2023-05-04T16:29:59.058Z,3.40
2023-05-04T16:32:28.323Z,3.85
2023-05-04T16:34:56.292Z,3.60
2023-05-04T16:37:33.398Z,3.63
2023-05-04T16:40:10.539Z,3.75
2023-05-04T16:42:40.285Z,3.97
2023-05-04T16:45:08.995Z,4.05
2023-05-04T16:47:38.493Z,4.38
2023-05-04T16:50:08.548Z,3.70
2023-05-04T16:52:38.505Z,3.75
2023-05-04T16:55:10.649Z,4.10
2023-05-04T16:57:44.860Z,4.20
2023-05-04T17:00:13.803Z,3.60
2023-05-04T17:02:43.272Z,3.60
2023-05-04T17:05:11.974Z,3.63
2023-05-04T17:07:41.120Z,3.80
2023-05-04T17:10:12.493Z,4.03
2023-05-04T17:12:42.755Z,2.85
2023-05-04T17:15:11.797Z,3.78
2023-05-04T17:17:39.339Z,3.50
2023-05-04T17:20:09.683Z,3.65
2023-05-04T17:22:37.599Z,3.83
2023-05-04T17:25:07.644Z,3.92
2023-05-04T17:27:38.400Z,4.60
2023-05-04T17:30:10.856Z,4.10
2023-05-04T17:32:39.652Z,3.72
2023-05-04T17:35:24.191Z,4.13
2023-05-04T17:37:58.476Z,4.40
2023-05-04T17:40:36.786Z,4.10
2023-05-04T17:43:05.682Z,4.53
2023-05-04T17:45:35.802Z,4.80
2023-05-04T17:48:05.259Z,4.90
2023-05-04T17:50:36.805Z,4.68
2023-05-04T17:53:05.492Z,4.65
2023-05-04T17:55:37.087Z,4.50
2023-05-04T17:58:06.559Z,4.70
2023-05-04T18:00:37.399Z,4.70
2023-05-04T18:03:12.477Z,4.60
2023-05-04T18:05:43.646Z,4.38
2023-05-04T18:08:10.976Z,4.38
2023-05-04T18:10:38.864Z,4.50
2023-05-04T18:13:10.686Z,5.05
2023-05-04T18:15:38.609Z,4.90
2023-05-04T18:18:15.093Z,4.80
2023-05-04T18:20:42.428Z,4.97
2023-05-04T18:23:11.577Z,5.03
2023-05-04T18:28:24.757Z,4.80
2023-05-04T18:30:52.506Z,5.00
2023-05-04T18:33:23.513Z,5.07
2023-05-04T18:35:52.759Z,5.68
2023-05-04T18:38:20.162Z,5.82
2023-05-04T18:43:29.113Z,5.90
2023-05-04T18:45:58.378Z,6.38
2023-05-04T18:48:26.326Z,5.30
2023-05-04T18:50:58.764Z,5.88
2023-05-04T18:53:26.595Z,5.15
2023-05-04T18:56:04.291Z,5.40
2023-05-04T18:58:32.383Z,5.22
2023-05-04T19:00:59.888Z,5.35
2023-05-04T19:03:27.593Z,5.45
2023-05-04T19:05:55.442Z,5.32
2023-05-04T19:08:22.989Z,5.53
2023-05-04T19:10:51.072Z,5.78
2023-05-04T19:13:18.567Z,6.15
2023-05-04T19:15:46.730Z,5.85
2023-05-04T19:18:13.989Z,5.50
2023-05-04T19:20:41.850Z,6.47
2023-05-04T19:23:10.418Z,6.45
2023-05-04T19:25:37.796Z,6.60
2023-05-04T19:28:08.919Z,6.63
2023-05-04T19:30:39.985Z,7.15
2023-05-04T19:33:10.703Z,7.88
2023-05-04T19:35:38.028Z,7.82
2023-05-04T19:38:06.730Z,7.60
2023-05-04T19:40:34.714Z,7.72
2023-05-04T19:43:02.121Z,8.52
2023-05-04T19:45:29.411Z,8.70
2023-05-04T19:47:56.729Z,8.40
2023-05-04T19:50:24.091Z,8.95
2023-05-04T19:52:52.345Z,8.25
2023-05-04T19:55:19.818Z,8.40
2023-05-04T19:57:49.919Z,8.07
2023-05-04T20:00:21.028Z,8.00
2023-05-04T20:02:48.467Z,6.90
2023-05-04T20:05:15.814Z,6.80
2023-05-04T20:07:43.555Z,6.22
2023-05-04T20:10:10.843Z,6.07
2023-05-04T20:12:38.153Z,5.53
2023-05-04T20:15:06.498Z,5.75
2023-05-04T20:17:33.823Z,6.13
2023-05-04T20:20:03.874Z,8.82
2023-05-04T20:22:32.003Z,9.63
2023-05-04T20:24:59.662Z,7.60
2023-05-04T20:27:26.978Z,9.48
2023-05-04T20:29:54.498Z,18.50
2023-05-04T20:32:22.433Z,19.67
2023-05-04T20:34:49.887Z,19.33
2023-05-04T20:37:17.293Z,17.90
2023-05-04T20:39:44.545Z,15.57
2023-05-04T20:42:12.586Z,13.20
2023-05-04T20:44:39.839Z,10.82
2023-05-04T20:47:07.213Z,9.48
2023-05-04T20:49:34.565Z,7.50
2023-05-04T20:52:01.918Z,12.68
2023-05-04T20:54:29.492Z,12.57
2023-05-04T20:56:56.845Z,14.48
2023-05-04T20:59:24.105Z,12.75
2023-05-04T21:01:51.779Z,9.80
2023-05-04T21:04:19.138Z,7.88
2023-05-04T21:06:48.236Z,10.60
2023-05-04T21:09:15.866Z,11.88
2023-05-04T21:11:43.211Z,10.15
2023-05-04T21:14:11.364Z,9.60
2023-05-04T21:16:38.627Z,9.50
2023-05-04T21:19:05.993Z,8.90
2023-05-04T21:21:37.276Z,8.82
2023-05-04T21:24:04.677Z,8.15
2023-05-04T21:26:32.147Z,7.93
2023-05-04T21:28:59.426Z,11.65
2023-05-04T21:31:26.913Z,11.23
2023-05-04T21:33:54.193Z,16.15
2023-05-04T21:36:23.090Z,8.73
2023-05-04T21:38:51.677Z,8.43
2023-05-04T21:41:20.259Z,6.93
2023-05-04T21:43:47.917Z,6.20
2023-05-04T21:46:17.245Z,7.37
2023-05-04T21:48:45.809Z,7.00
2023-05-04T21:54:30.551Z,9.47
2023-05-04T21:57:04.233Z,7.20
2023-05-04T21:59:32.231Z,7.50
2023-05-04T22:02:04.329Z,7.93
2023-05-04T22:04:38.763Z,23.40
2023-05-04T22:07:09.714Z,10.87
2023-05-04T22:09:45.778Z,12.27
2023-05-04T22:12:15.071Z,11.13
2023-05-04T22:14:44.005Z,10.77
2023-05-04T22:17:12.731Z,10.03
2023-05-04T22:19:41.033Z,8.70
2023-05-04T22:22:08.997Z,8.20
2023-05-04T22:24:37.008Z,8.17
2023-05-04T22:27:04.641Z,8.00
2023-05-04T22:29:37.734Z,7.23
2023-05-04T22:32:05.878Z,7.37
2023-05-04T22:34:45.050Z,7.63
2023-05-04T22:37:12.859Z,7.60
2023-05-04T22:39:40.589Z,7.10
2023-05-04T22:42:09.488Z,6.90
2023-05-04T22:44:41.734Z,7.07
2023-05-04T22:47:11.928Z,7.43
2023-05-04T22:49:40.452Z,7.10
2023-05-04T22:52:09.576Z,7.20
2023-05-04T22:54:37.228Z,7.60
2023-05-04T22:57:04.786Z,7.47
2023-05-04T22:59:34.479Z,7.90
2023-05-04T23:02:08.674Z,8.83
2023-05-04T23:04:41.972Z,51.80
2023-05-04T23:07:15.784Z,29.93
2023-05-04T23:09:43.815Z,32.90
2023-05-04T23:12:11.421Z,22.23
2023-05-04T23:14:40.644Z,17.47
2023-05-04T23:17:10.297Z,13.73
2023-05-04T23:19:37.900Z,10.10
2023-05-04T23:22:08.173Z,9.07
2023-05-04T23:24:37.203Z,7.77
2023-05-04T23:27:06.187Z,8.40
2023-05-04T23:29:38.070Z,8.80
2023-05-04T23:32:05.975Z,8.70
2023-05-04T23:34:34.046Z,7.07
2023-05-04T23:37:02.636Z,7.97
2023-05-04T23:39:31.540Z,7.90
2023-05-04T23:41:59.512Z,7.87
2023-05-04T23:44:26.997Z,8.43
2023-05-04T23:46:56.105Z,10.53
2023-05-04T23:49:24.213Z,7.47
2023-05-04T23:51:55.003Z,8.47
2023-05-04T23:54:24.678Z,8.23
2023-05-04T23:56:53.440Z,8.27
2023-05-04T23:59:21.414Z,7.43
